Terminal Aerodrome Forecast
Issued by NWS Cleveland, OH

Home | Current Version | Previous Version | Text Only | Print | Product List | Glossary On
Versions: 1 2 3 4 5 6 7 8 9 10 11 12
201
FTUS41 KCLE 282320
TAFMFD
TAF
KMFD 282320Z 2900/2924 12005KT P6SM VCSH SCT040 OVC250
     FM290600 VRB02KT 5SM BR BKN250
     FM290900 VRB02KT 3SM BR BKN250
      TEMPO 2909/2913 1SM BR
     FM291400 34004KT 6SM HZ SCT045 BKN200
     FM291700 34004KT P6SM VCTS BKN045CB=

USA.gov is the U.S. government's official web portal to all federal, state and local government web resources and services.